createdAt,value
2018-07-16T00:00:13.998Z,29.97
2018-07-16T00:02:56.787Z,35.13
2018-07-16T00:05:39.392Z,27.80
2018-07-16T00:08:22.164Z,32.23
2018-07-16T00:11:05.022Z,33.93
2018-07-16T00:13:47.682Z,31.87
2018-07-16T00:16:30.205Z,31.00
2018-07-16T00:19:13.305Z,42.80
2018-07-16T00:21:56.380Z,31.60
2018-07-16T00:24:39.873Z,37.97
2018-07-16T00:27:22.576Z,44.17
2018-07-16T00:30:05.517Z,36.40
2018-07-16T00:32:48.276Z,37.17
2018-07-16T00:35:31.297Z,32.77
2018-07-16T00:38:14.201Z,37.47
2018-07-16T00:40:57.083Z,35.93
2018-07-16T00:43:39.850Z,27.73
2018-07-16T00:46:22.667Z,26.87
2018-07-16T00:49:06.124Z,34.97
2018-07-16T00:51:49.260Z,32.70
2018-07-16T00:54:32.252Z,31.47
2018-07-16T00:57:14.873Z,42.67
2018-07-16T00:59:57.956Z,30.53
2018-07-16T01:02:40.645Z,41.53
2018-07-16T01:05:23.477Z,38.97
2018-07-16T01:08:09.167Z,27.10
2018-07-16T01:10:52.025Z,40.10
2018-07-16T01:13:34.564Z,28.27
2018-07-16T01:16:17.368Z,35.43
2018-07-16T01:18:59.769Z,42.43
2018-07-16T01:21:42.540Z,32.87
2018-07-16T01:24:25.474Z,46.10
2018-07-16T01:27:08.364Z,40.77
2018-07-16T01:29:51.123Z,44.33
2018-07-16T01:32:34.038Z,40.77
2018-07-16T01:35:16.723Z,47.37
2018-07-16T01:37:59.763Z,46.90
2018-07-16T01:40:42.656Z,47.10
2018-07-16T01:43:25.195Z,47.63
2018-07-16T01:46:08.112Z,41.13
2018-07-16T01:48:50.888Z,44.47
2018-07-16T01:51:33.419Z,44.97
2018-07-16T01:54:16.689Z,47.60
2018-07-16T01:56:59.010Z,35.90
2018-07-16T01:59:41.518Z,38.83
2018-07-16T02:02:24.275Z,40.20
2018-07-16T02:05:07.560Z,42.83
2018-07-16T02:07:49.959Z,34.33
2018-07-16T02:10:32.969Z,45.30
2018-07-16T02:13:15.808Z,39.23
2018-07-16T02:15:58.652Z,37.63
2018-07-16T02:18:41.367Z,29.83
2018-07-16T02:21:24.104Z,33.40
2018-07-16T02:24:06.756Z,31.50
2018-07-16T02:26:49.664Z,28.40
2018-07-16T02:29:32.037Z,30.53
2018-07-16T02:32:14.857Z,45.63
2018-07-16T02:34:57.785Z,31.07
2018-07-16T02:37:40.506Z,36.80
2018-07-16T02:40:23.322Z,32.20
2018-07-16T02:43:06.607Z,40.10
2018-07-16T02:45:49.097Z,29.63
2018-07-16T02:48:32.017Z,33.63
2018-07-16T02:51:14.816Z,30.73
2018-07-16T02:53:57.577Z,37.80
2018-07-16T02:56:40.221Z,31.60
2018-07-16T02:59:23.031Z,43.63
2018-07-16T03:02:05.724Z,40.73
2018-07-16T03:04:48.401Z,32.60
2018-07-16T03:07:30.576Z,36.40
2018-07-16T03:10:13.752Z,30.57
2018-07-16T03:12:56.435Z,40.97
2018-07-16T03:15:39.336Z,28.83
2018-07-16T03:18:21.922Z,31.03
2018-07-16T03:21:04.107Z,26.43
2018-07-16T03:23:46.580Z,37.23
2018-07-16T03:26:29.433Z,32.20
2018-07-16T03:29:12.407Z,40.65
2018-07-16T03:31:55.190Z,36.03
2018-07-16T03:34:38.420Z,45.57
2018-07-16T03:37:20.809Z,37.80
2018-07-16T03:40:03.851Z,38.03
2018-07-16T03:42:46.448Z,35.27
2018-07-16T03:45:29.041Z,31.33
2018-07-16T03:48:11.872Z,27.57
2018-07-16T03:50:54.689Z,40.87
2018-07-16T03:53:37.393Z,31.13
2018-07-16T03:56:20.101Z,45.13
2018-07-16T03:59:02.801Z,31.23
2018-07-16T04:01:45.964Z,41.60
2018-07-16T04:04:28.781Z,36.60
2018-07-16T04:07:11.847Z,40.53
2018-07-16T04:09:54.745Z,55.10
2018-07-16T04:12:37.712Z,72.27
2018-07-16T04:15:20.201Z,49.80
2018-07-16T04:18:03.505Z,55.03
2018-07-16T04:20:46.335Z,44.07
2018-07-16T04:23:29.468Z,43.52
2018-07-16T04:26:12.391Z,68.47
2018-07-16T04:28:55.147Z,45.93
2018-07-16T04:31:38.276Z,44.13
2018-07-16T04:34:21.084Z,35.60
2018-07-16T04:37:04.484Z,43.03
2018-07-16T04:39:47.339Z,37.97
2018-07-16T04:42:29.926Z,47.80
2018-07-16T04:45:13.079Z,143.97
2018-07-16T04:47:55.627Z,174.03
2018-07-16T04:50:38.405Z,113.93
2018-07-16T04:53:21.342Z,120.90
2018-07-16T04:56:04.106Z,85.70
2018-07-16T04:58:47.138Z,67.37
2018-07-16T05:01:30.060Z,85.80
2018-07-16T05:04:12.761Z,52.70
2018-07-16T05:06:55.635Z,61.60
2018-07-16T05:09:38.320Z,81.13
2018-07-16T05:12:21.189Z,160.23
2018-07-16T05:15:04.413Z,235.17
2018-07-16T05:17:47.045Z,119.63
2018-07-16T05:20:29.860Z,109.13
2018-07-16T05:23:13.205Z,217.30
2018-07-16T05:25:55.949Z,151.63
2018-07-16T05:28:38.681Z,113.73
2018-07-16T05:31:21.479Z,164.87
2018-07-16T05:34:04.551Z,72.77
2018-07-16T05:36:47.399Z,47.30
2018-07-16T05:39:29.938Z,34.93
2018-07-16T05:42:12.646Z,54.60
2018-07-16T05:44:55.546Z,89.73
2018-07-16T05:47:38.434Z,145.93
2018-07-16T05:50:21.646Z,43.53
2018-07-16T05:53:04.137Z,34.60
2018-07-16T05:55:47.124Z,39.17
2018-07-16T05:58:30.082Z,42.27
2018-07-16T06:01:12.809Z,47.27
2018-07-16T06:03:55.703Z,31.03
2018-07-16T06:06:38.661Z,39.00
2018-07-16T06:09:21.168Z,41.20
2018-07-16T06:12:03.936Z,38.53
2018-07-16T06:14:46.513Z,25.13
2018-07-16T06:17:29.427Z,26.90
2018-07-16T06:20:13.048Z,31.10
2018-07-16T06:22:55.503Z,33.80
2018-07-16T06:25:38.409Z,33.60
2018-07-16T06:28:21.275Z,27.10
2018-07-16T06:31:04.265Z,34.17
2018-07-16T06:33:47.084Z,33.77
2018-07-16T06:36:29.795Z,46.43
2018-07-16T06:39:12.524Z,38.27
2018-07-16T06:41:55.313Z,56.63
2018-07-16T06:44:38.436Z,54.73
2018-07-16T06:47:22.553Z,47.17
2018-07-16T06:50:05.862Z,39.40
2018-07-16T06:52:48.221Z,53.17
2018-07-16T06:55:34.719Z,64.70
2018-07-16T06:58:17.817Z,65.12
2018-07-16T07:01:01.015Z,61.70
2018-07-16T07:03:43.453Z,91.83
2018-07-16T07:06:26.389Z,107.33
2018-07-16T07:09:09.198Z,99.97
2018-07-16T07:11:52.050Z,105.80
2018-07-16T07:14:35.104Z,72.47
2018-07-16T07:17:17.956Z,85.77
2018-07-16T07:20:00.849Z,73.10
2018-07-16T07:22:43.506Z,68.90
2018-07-16T07:25:25.926Z,105.73
2018-07-16T07:28:08.244Z,94.53
2018-07-16T07:30:51.049Z,81.47
2018-07-16T07:33:33.913Z,65.37
2018-07-16T07:36:16.446Z,51.33
2018-07-16T07:38:58.706Z,54.83
2018-07-16T07:41:41.882Z,53.70
2018-07-16T07:44:24.640Z,40.13
2018-07-16T07:47:07.528Z,55.47
2018-07-16T07:49:50.328Z,32.97
2018-07-16T07:52:33.048Z,37.03
2018-07-16T07:55:16.059Z,28.60
2018-07-16T07:57:58.684Z,24.50
2018-07-16T08:00:41.268Z,26.03
2018-07-16T08:03:24.493Z,34.40
2018-07-16T08:06:08.000Z,28.53
2018-07-16T08:08:50.573Z,30.77
2018-07-16T08:11:33.571Z,28.33
2018-07-16T08:14:16.271Z,22.67
2018-07-16T08:16:59.378Z,22.50
2018-07-16T08:19:41.774Z,29.83
2018-07-16T08:22:24.745Z,24.63
2018-07-16T08:25:07.893Z,30.07
2018-07-16T08:27:50.227Z,23.13
2018-07-16T08:30:33.252Z,29.70
2018-07-16T08:33:15.552Z,17.43
2018-07-16T08:35:58.200Z,21.17
2018-07-16T08:38:40.985Z,29.70
2018-07-16T08:41:23.854Z,31.17
2018-07-16T08:44:06.452Z,26.70
2018-07-16T08:46:49.286Z,35.67
2018-07-16T08:49:32.178Z,20.70
2018-07-16T08:52:14.716Z,23.83
2018-07-16T08:54:57.723Z,15.50
2018-07-16T08:57:40.437Z,27.43
2018-07-16T09:00:23.167Z,17.10
2018-07-16T09:03:05.730Z,21.30
2018-07-16T09:05:52.533Z,15.77
2018-07-16T09:08:36.317Z,19.50
2018-07-16T09:11:18.947Z,20.00
2018-07-16T09:14:01.819Z,22.93
2018-07-16T09:16:44.428Z,29.60
2018-07-16T09:19:27.353Z,23.70
2018-07-16T09:22:10.065Z,20.70
2018-07-16T09:24:52.646Z,16.77
2018-07-16T09:27:35.026Z,13.57
2018-07-16T09:30:18.203Z,19.42
2018-07-16T09:33:01.342Z,33.43
2018-07-16T09:35:44.167Z,17.03
2018-07-16T09:38:26.794Z,12.23
2018-07-16T09:41:09.255Z,9.70
2018-07-16T09:43:52.251Z,20.50
2018-07-16T09:46:35.311Z,19.43
2018-07-16T09:49:18.482Z,18.93
2018-07-16T09:52:00.964Z,41.67
2018-07-16T09:54:43.658Z,49.70
2018-07-16T09:57:26.645Z,30.57
2018-07-16T10:00:09.535Z,111.13
2018-07-16T10:02:52.286Z,46.83
2018-07-16T10:05:34.678Z,29.80
2018-07-16T10:08:17.162Z,28.10
2018-07-16T10:11:00.521Z,32.90
2018-07-16T10:13:43.206Z,22.47
2018-07-16T10:16:25.991Z,67.80
2018-07-16T10:19:08.068Z,28.80
2018-07-16T10:21:50.275Z,23.13
2018-07-16T10:24:33.304Z,34.10
2018-07-16T10:27:16.098Z,26.40
2018-07-16T10:29:58.891Z,24.03
2018-07-16T10:32:41.462Z,22.00
2018-07-16T10:35:25.164Z,33.93
2018-07-16T10:38:08.455Z,17.27
2018-07-16T10:40:51.457Z,13.27
2018-07-16T10:43:34.855Z,16.00
2018-07-16T10:46:17.227Z,15.60
2018-07-16T10:48:59.894Z,25.47
2018-07-16T10:51:42.934Z,8.50
2018-07-16T10:54:25.653Z,42.77
2018-07-16T10:57:09.267Z,15.30
2018-07-16T10:59:51.533Z,27.37
2018-07-16T11:02:34.784Z,11.87
2018-07-16T11:05:17.419Z,16.40
2018-07-16T11:08:00.220Z,6.87
2018-07-16T11:10:43.043Z,24.87
2018-07-16T11:13:25.128Z,18.63
2018-07-16T11:16:08.450Z,9.83
2018-07-16T11:18:51.150Z,7.23
2018-07-16T11:21:34.058Z,22.57
2018-07-16T11:24:16.990Z,5.00
2018-07-16T11:26:59.607Z,6.17
2018-07-16T11:29:42.193Z,6.93
2018-07-16T11:32:24.877Z,5.97
2018-07-16T11:35:07.798Z,10.57
2018-07-16T11:37:50.319Z,9.68
2018-07-16T11:40:33.310Z,7.83
2018-07-16T11:43:16.228Z,13.55
2018-07-16T11:45:59.025Z,13.48
2018-07-16T11:48:41.310Z,9.48
2018-07-16T11:51:24.120Z,18.70
2018-07-16T11:54:06.933Z,9.48
2018-07-16T11:56:49.705Z,10.38
2018-07-16T11:59:32.231Z,12.30
2018-07-16T12:02:15.241Z,6.75
2018-07-16T12:04:57.765Z,13.65
2018-07-16T12:07:40.420Z,5.87
2018-07-16T12:10:23.072Z,6.83
2018-07-16T12:13:05.764Z,3.65
2018-07-16T12:15:48.649Z,6.08
2018-07-16T12:18:31.307Z,3.60
2018-07-16T12:21:14.184Z,10.35
2018-07-16T12:23:57.353Z,5.28
2018-07-16T12:26:39.711Z,20.32
2018-07-16T12:29:22.357Z,18.55
2018-07-16T12:32:05.448Z,6.00
2018-07-16T12:34:48.128Z,22.05
2018-07-16T12:37:31.134Z,29.57
2018-07-16T12:40:13.604Z,4.70
2018-07-16T12:42:56.269Z,5.83
2018-07-16T12:45:38.956Z,8.08
2018-07-16T12:48:21.496Z,8.35
2018-07-16T12:51:04.237Z,7.65
2018-07-16T12:53:46.601Z,15.30
2018-07-16T12:56:30.701Z,12.70
2018-07-16T12:59:13.444Z,11.43
2018-07-16T13:01:56.125Z,15.53
2018-07-16T13:04:38.975Z,9.28
2018-07-16T13:07:22.461Z,14.25
2018-07-16T13:10:05.438Z,11.83
2018-07-16T13:12:48.292Z,14.70
2018-07-16T13:15:30.736Z,9.60
2018-07-16T13:18:13.441Z,10.13
2018-07-16T13:20:56.057Z,8.93
2018-07-16T13:23:39.056Z,12.05
2018-07-16T13:26:21.860Z,14.50
2018-07-16T13:29:04.562Z,6.97
2018-07-16T13:31:47.684Z,5.90
2018-07-16T13:34:30.142Z,7.40
2018-07-16T13:39:33.918Z,14.43
2018-07-16T13:42:16.542Z,9.48
2018-07-16T13:44:59.575Z,19.90
2018-07-16T13:47:42.221Z,11.80
2018-07-16T13:50:25.030Z,16.17
2018-07-16T13:53:07.848Z,12.58
2018-07-16T13:55:50.604Z,22.55
2018-07-16T13:58:33.472Z,10.08
2018-07-16T14:01:16.229Z,24.92
2018-07-16T14:03:59.278Z,6.95
2018-07-16T14:06:43.643Z,16.50
2018-07-16T14:09:26.725Z,12.70
2018-07-16T14:12:10.327Z,9.50
2018-07-16T14:14:53.553Z,11.22
2018-07-16T14:17:36.514Z,9.13
2018-07-16T14:20:18.363Z,7.62
2018-07-16T14:23:02.990Z,9.20
2018-07-16T14:25:45.945Z,21.97
2018-07-16T14:28:28.883Z,13.72
2018-07-16T14:31:12.137Z,6.90
2018-07-16T14:33:57.929Z,9.38
2018-07-16T14:36:43.821Z,22.40
2018-07-16T14:39:27.272Z,8.90
2018-07-16T14:42:11.352Z,7.67
2018-07-16T14:44:54.211Z,13.75
2018-07-16T14:47:37.361Z,13.62
2018-07-16T14:50:20.165Z,16.62
2018-07-16T14:53:02.316Z,10.88
2018-07-16T14:55:45.746Z,13.68
2018-07-16T14:58:28.118Z,11.38
2018-07-16T15:01:10.900Z,10.82
2018-07-16T15:03:53.733Z,16.52
2018-07-16T15:06:36.648Z,15.18
2018-07-16T15:09:19.583Z,11.12
2018-07-16T15:12:02.454Z,13.38
2018-07-16T15:14:45.389Z,16.35
2018-07-16T15:17:28.049Z,16.20
2018-07-16T15:20:11.219Z,24.47
2018-07-16T15:22:54.051Z,13.10
2018-07-16T15:25:37.056Z,19.98
2018-07-16T15:28:19.905Z,13.83
2018-07-16T15:31:02.685Z,18.57
2018-07-16T15:33:46.807Z,19.23
2018-07-16T15:36:29.278Z,16.40
2018-07-16T15:39:12.110Z,18.70
2018-07-16T15:41:55.046Z,12.15
2018-07-16T15:44:38.018Z,23.45
2018-07-16T15:47:21.167Z,15.72
2018-07-16T15:50:03.982Z,19.60
2018-07-16T15:52:46.594Z,13.65
2018-07-16T15:55:29.062Z,36.03
2018-07-16T15:58:11.775Z,13.88
2018-07-16T16:00:54.675Z,16.10
2018-07-16T16:03:37.657Z,14.53
2018-07-16T16:06:20.482Z,14.28
2018-07-16T16:09:03.352Z,12.95
2018-07-16T16:11:46.312Z,18.70
2018-07-16T16:14:28.933Z,14.23
2018-07-16T16:17:11.770Z,12.73
2018-07-16T16:19:55.602Z,16.32
2018-07-16T16:22:38.126Z,16.62
2018-07-16T16:25:20.888Z,15.05
2018-07-16T16:28:03.920Z,18.77
2018-07-16T16:30:46.868Z,21.62
2018-07-16T16:33:29.581Z,20.50
2018-07-16T16:36:12.274Z,14.20
2018-07-16T16:38:55.037Z,13.85
2018-07-16T16:41:37.736Z,18.55
2018-07-16T16:44:21.048Z,29.05
2018-07-16T16:47:04.524Z,25.62
2018-07-16T16:49:46.882Z,17.05
2018-07-16T16:52:29.118Z,18.27
2018-07-16T16:55:11.981Z,21.10
2018-07-16T16:57:54.468Z,24.47
2018-07-16T17:00:37.623Z,25.67
2018-07-16T17:03:20.908Z,19.65
2018-07-16T17:06:03.993Z,22.58
2018-07-16T17:08:47.104Z,20.72
2018-07-16T17:11:30.073Z,22.35
2018-07-16T17:14:12.696Z,17.87
2018-07-16T17:16:55.833Z,16.10
2018-07-16T17:19:38.974Z,13.35
2018-07-16T17:22:21.670Z,12.20
2018-07-16T17:25:04.605Z,17.95
2018-07-16T17:27:47.571Z,20.95
2018-07-16T17:30:30.420Z,20.02
2018-07-16T17:33:17.812Z,12.13
2018-07-16T17:36:00.757Z,21.25
2018-07-16T17:38:43.395Z,11.22
2018-07-16T17:41:27.162Z,12.63
2018-07-16T17:44:09.470Z,18.67
2018-07-16T17:46:53.937Z,24.10
2018-07-16T17:49:36.338Z,15.00
2018-07-16T17:52:19.539Z,18.17
2018-07-16T17:55:02.578Z,23.83
2018-07-16T17:57:45.577Z,16.70
2018-07-16T18:00:29.051Z,34.05
2018-07-16T18:03:12.392Z,40.97
2018-07-16T18:05:59.746Z,30.40
2018-07-16T18:08:42.516Z,27.30
2018-07-16T18:11:25.365Z,23.03
2018-07-16T18:14:09.157Z,31.30
2018-07-16T18:16:51.462Z,28.90
2018-07-16T18:19:34.414Z,12.00
2018-07-16T18:22:17.202Z,23.10
2018-07-16T18:25:00.397Z,17.03
2018-07-16T18:27:43.366Z,15.77
2018-07-16T18:30:25.973Z,24.23
2018-07-16T18:33:08.669Z,21.87
2018-07-16T18:35:51.315Z,14.03
2018-07-16T18:38:33.718Z,19.00
2018-07-16T18:41:16.147Z,29.73
2018-07-16T18:43:59.591Z,23.73
2018-07-16T18:46:42.317Z,27.43
2018-07-16T18:49:25.138Z,26.63
2018-07-16T18:52:07.955Z,24.20
2018-07-16T18:54:51.481Z,19.40
2018-07-16T18:57:33.910Z,19.00
2018-07-16T19:00:16.327Z,15.80
2018-07-16T19:02:59.560Z,16.43
2018-07-16T19:05:42.711Z,16.87
2018-07-16T19:08:25.564Z,16.70
2018-07-16T19:11:08.794Z,20.63
2018-07-16T19:13:51.916Z,13.43
2018-07-16T19:16:34.725Z,17.40
2018-07-16T19:19:17.580Z,17.77
2018-07-16T19:22:00.432Z,13.13
2018-07-16T19:24:43.769Z,22.63
2018-07-16T19:27:26.113Z,17.57
2018-07-16T19:30:08.923Z,18.80
2018-07-16T19:32:51.926Z,17.30
2018-07-16T19:35:34.476Z,15.70
2018-07-16T19:38:17.222Z,16.87
2018-07-16T19:41:00.135Z,17.70
2018-07-16T19:43:43.672Z,15.83
2018-07-16T19:46:26.785Z,18.13
2018-07-16T19:49:09.340Z,12.00
2018-07-16T19:51:51.968Z,11.83
2018-07-16T19:54:34.824Z,24.57
2018-07-16T19:57:17.884Z,18.83
2018-07-16T20:00:00.982Z,17.97
2018-07-16T20:02:43.724Z,22.60
2018-07-16T20:05:25.968Z,12.53
2018-07-16T20:08:09.057Z,14.20
2018-07-16T20:10:51.455Z,18.80
2018-07-16T20:13:34.432Z,18.07
2018-07-16T20:16:16.936Z,16.63
2018-07-16T20:18:59.329Z,24.47
2018-07-16T20:21:42.779Z,110.33
2018-07-16T20:24:25.891Z,82.67
2018-07-16T20:27:09.142Z,44.03
2018-07-16T20:29:52.746Z,39.13
2018-07-16T20:32:35.168Z,73.03
2018-07-16T20:35:18.296Z,37.43
2018-07-16T20:38:01.233Z,36.43
2018-07-16T20:40:44.418Z,19.40
2018-07-16T20:43:30.162Z,27.53
2018-07-16T20:46:12.955Z,24.50
2018-07-16T20:48:56.538Z,49.67
2018-07-16T20:51:38.891Z,42.03
2018-07-16T20:54:22.061Z,88.73
2018-07-16T20:57:04.853Z,28.43
2018-07-16T20:59:47.868Z,22.83
2018-07-16T21:02:31.040Z,21.23
2018-07-16T21:05:13.984Z,28.77
2018-07-16T21:07:57.244Z,23.70
2018-07-16T21:10:40.292Z,20.13
2018-07-16T21:13:23.172Z,15.10
2018-07-16T21:16:06.705Z,19.20
2018-07-16T21:18:49.617Z,41.47
2018-07-16T21:21:32.589Z,32.60
2018-07-16T21:24:15.728Z,54.23
2018-07-16T21:26:58.037Z,56.20
2018-07-16T21:29:40.335Z,27.33
2018-07-16T21:32:22.591Z,35.37
2018-07-16T21:35:05.509Z,35.97
2018-07-16T21:37:48.304Z,37.40
2018-07-16T21:40:30.693Z,32.07
2018-07-16T21:43:13.669Z,22.57
2018-07-16T21:45:56.563Z,21.10
2018-07-16T21:48:39.549Z,40.33
2018-07-16T21:51:22.957Z,44.63
2018-07-16T21:54:05.666Z,31.53
2018-07-16T21:56:48.084Z,43.30
2018-07-16T21:59:31.007Z,24.67
2018-07-16T22:02:14.051Z,31.93
2018-07-16T22:04:56.831Z,24.03
2018-07-16T22:07:39.700Z,21.93
2018-07-16T22:10:22.942Z,17.90
2018-07-16T22:13:05.374Z,64.40
2018-07-16T22:15:47.949Z,79.20
2018-07-16T22:18:30.826Z,95.10
2018-07-16T22:21:13.724Z,75.63
2018-07-16T22:23:58.101Z,60.83
2018-07-16T22:26:41.159Z,64.17
2018-07-16T22:29:23.584Z,32.70
2018-07-16T22:32:06.368Z,27.63
2018-07-16T22:34:48.692Z,22.53
2018-07-16T22:37:32.347Z,20.97
2018-07-16T22:40:15.165Z,26.13
2018-07-16T22:42:57.580Z,26.93
2018-07-16T22:45:40.427Z,101.93
2018-07-16T22:48:23.647Z,32.20
2018-07-16T22:51:06.210Z,30.00
2018-07-16T22:53:48.982Z,13.80
2018-07-16T22:56:31.564Z,31.23
2018-07-16T22:59:14.469Z,25.83
2018-07-16T23:01:56.369Z,22.43
2018-07-16T23:04:38.790Z,30.20
2018-07-16T23:07:21.973Z,35.30
2018-07-16T23:10:04.880Z,24.03
2018-07-16T23:12:48.004Z,25.60
2018-07-16T23:15:30.924Z,25.13
2018-07-16T23:18:13.663Z,26.37
2018-07-16T23:20:55.960Z,30.90
2018-07-16T23:23:38.596Z,23.43
2018-07-16T23:26:21.411Z,24.03
2018-07-16T23:29:04.619Z,34.97
2018-07-16T23:31:46.951Z,34.33
2018-07-16T23:34:30.181Z,24.63
2018-07-16T23:37:13.009Z,26.30
2018-07-16T23:39:55.651Z,37.33
2018-07-16T23:42:38.303Z,21.30
2018-07-16T23:45:20.939Z,22.80
2018-07-16T23:48:03.842Z,21.73
2018-07-16T23:50:46.776Z,32.27
2018-07-16T23:53:29.600Z,26.93
2018-07-16T23:56:12.659Z,28.77
2018-07-16T23:58:55.804Z,33.47
